Time;durP1;ratioP1;P1;durP2;ratioP2;P2;SDS_P1;SDS_P2;PMS_P1;PMS_P2;Temp;Humidity;BMP_temperature;BMP_pressure;BME280_temperature;BME280_humidity;BME280_pressure;Samples;Min_cycle;Max_cycle;Signal;HPM_P1;HPM_P2
2022/12/22 03:28:07;;;;;;;120.63;115.72;;;8.20;95.50;;;;;;5029856;28;20044;-80
2022/12/22 03:30:33;;;;;;;114.85;110.15;;;8.20;95.50;;;;;;5030070;28;20049;-80
2022/12/22 03:32:59;;;;;;;;;;;8.20;95.50;;;;;;5029007;28;20029;-80
2022/12/22 03:35:25;;;;;;;115.22;110.53;;;8.20;95.50;;;;;;5029356;28;20372;-80
2022/12/22 03:37:51;;;;;;;114.13;109.50;;;8.30;95.50;;;;;;5029351;28;20473;-81
2022/12/22 03:40:16;;;;;;;122.45;117.45;;;8.30;95.50;;;;;;5028143;28;20040;-81
2022/12/22 03:48:10;;;;;;;118.82;113.97;;;8.30;95.50;;;;;;5028480;28;20459;-81
2022/12/22 03:50:36;;;;;;;119.03;114.22;;;8.30;95.50;;;;;;5011381;28;20124;-80
2022/12/22 03:53:02;;;;;;;117.22;112.43;;;8.30;95.50;;;;;;5011309;28;20076;-80
2022/12/22 03:55:28;;;;;;;118.05;113.25;;;8.40;95.50;;;;;;4994790;28;20436;-80
2022/12/22 03:57:53;;;;;;;118.30;113.50;;;8.40;95.50;;;;;;5028917;28;20038;-81
2022/12/22 04:00:19;;;;;;;115.50;110.80;;;8.40;95.50;;;;;;5027643;28;20087;-80
2022/12/22 04:02:45;;;;;;;117.30;112.50;;;8.40;95.60;;;;;;5029411;28;20060;-81
2022/12/22 04:05:11;;;;;;;114.13;109.50;;;8.40;95.60;;;;;;5028944;28;20041;-81
2022/12/22 04:07:36;;;;;;;113.95;109.32;;;8.50;95.60;;;;;;5028768;28;20037;-81
2022/12/22 04:12:53;;;;;;;111.30;106.80;;;8.50;95.60;;;;;;5028969;28;20110;-80
2022/12/22 04:15:20;;;;;;;109.63;105.22;;;8.50;95.60;;;;;;5028517;28;20064;-81
2022/12/22 04:17:46;;;;;;;108.82;104.45;;;8.50;95.70;;;;;;5010786;28;20116;-80
2022/12/22 04:20:11;;;;;;;115.07;110.47;;;8.50;95.70;;;;;;5027460;28;20423;-80
2022/12/22 04:22:37;;;;;;;109.22;104.82;;;8.50;95.70;;;;;;5010667;28;20045;-80
2022/12/22 04:25:03;;;;;;;109.78;105.38;;;8.60;95.70;;;;;;5027153;28;20040;-80
2022/12/22 04:27:29;;;;;;;106.55;102.25;;;8.60;95.60;;;;;;5027263;28;20025;-81
2022/12/22 04:29:55;;;;;;;103.35;99.22;;;8.60;95.60;;;;;;5027235;28;20034;-80
2022/12/22 04:32:20;;;;;;;107.40;103.10;;;8.50;95.60;;;;;;5010749;28;20119;-80
2022/12/22 04:34:46;;;;;;;111.63;107.13;;;8.50;95.60;;;;;;5009711;28;20434;-81
2022/12/22 04:37:12;;;;;;;107.40;103.20;;;8.50;95.60;;;;;;5028078;28;20041;-81
2022/12/22 04:39:37;;;;;;;109.13;104.75;;;8.50;95.60;;;;;;5028134;28;20475;-81
2022/12/22 04:42:03;;;;;;;112.88;108.35;;;8.50;95.70;;;;;;5026915;28;20033;-81
2022/12/22 04:44:28;;;;;;;120.35;115.35;;;8.40;95.70;;;;;;5026932;28;20026;-81
2022/12/22 04:46:54;;;;;;;122.80;117.70;;;8.40;95.70;;;;;;5010415;28;20037;-81
2022/12/22 04:49:20;;;;;;;127.75;122.45;;;8.40;95.80;;;;;;5026766;28;20029;-81
2022/12/22 04:51:45;;;;;;;125.22;120.03;;;8.30;95.70;;;;;;5028512;28;20437;-81
2022/12/22 04:54:11;;;;;;;126.40;121.20;;;8.30;95.80;;;;;;5026692;28;20033;-81
2022/12/22 04:56:37;;;;;;;128.05;122.75;;;8.30;95.80;;;;;;5009983;28;20039;-81
2022/12/22 04:59:02;;;;;;;123.45;118.25;;;8.30;95.80;;;;;;4993916;28;20069;-80
2022/12/22 05:01:28;;;;;;;124.95;119.75;;;8.30;95.80;;;;;;5027826;28;20034;-80
2022/12/22 05:03:54;;;;;;;122.10;117.00;;;8.40;95.70;;;;;;5010093;28;20045;-80
2022/12/22 05:06:19;;;;;;;121.15;116.05;;;8.30;95.70;;;;;;5027629;28;20029;-80
2022/12/22 05:08:45;;;;;;;122.65;117.50;;;8.30;95.80;;;;;;4993632;28;20116;-80
2022/12/22 05:11:11;;;;;;;125.63;120.43;;;8.30;95.80;;;;;;5009986;28;20037;-80
2022/12/22 05:13:37;;;;;;;123.95;118.75;;;8.40;95.80;;;;;;5028036;28;20041;-80
2022/12/22 05:16:07;;;;;;;123.18;118.07;;;8.40;95.80;;;;;;5009904;28;20029;-80
2022/12/22 05:18:34;;;;;;;124.32;119.20;;;8.40;95.80;;;;;;5026342;28;20034;-80
2022/12/22 05:21:06;;;;;;;124.78;119.57;;;8.40;95.80;;;;;;5026339;28;20026;-80
2022/12/22 05:23:32;;;;;;;124.63;119.43;;;8.40;95.80;;;;;;5027396;28;20079;-80
2022/12/22 05:25:58;;;;;;;125.88;120.68;;;8.30;95.80;;;;;;5026284;28;20057;-79
2022/12/22 05:28:23;;;;;;;124.05;118.88;;;8.30;95.90;;;;;;5027599;28;20519;-79
2022/12/22 05:30:49;;;;;;;128.65;123.32;;;8.30;95.90;;;;;;5027513;28;20096;-80
2022/12/22 05:33:15;;;;;;;122.53;117.43;;;8.30;95.90;;;;;;5026229;28;20120;-80
2022/12/22 05:35:40;;;;;;;121.57;116.47;;;8.30;95.90;;;;;;5009620;28;20489;-80
2022/12/22 05:38:06;;;;;;;131.02;125.60;;;8.30;95.90;;;;;;4994965;28;20433;-80
2022/12/22 05:40:32;;;;;;;121.15;116.05;;;8.40;95.90;;;;;;5009702;28;20091;-80
2022/12/22 05:42:57;;;;;;;122.20;117.10;;;8.40;95.80;;;;;;5009853;28;20155;-80
2022/12/22 05:45:23;;;;;;;128.68;123.32;;;8.40;95.80;;;;;;5009555;28;20133;-80
2022/12/22 05:47:51;;;;;;;125.40;120.20;;;8.40;95.80;;;;;;5013554;28;20143;-79
2022/12/22 05:50:19;;;;;;;121.28;116.18;;;8.40;95.80;;;;;;5031391;28;20381;-79
2022/12/22 05:52:45;;;;;;;124.20;119.00;;;8.40;95.80;;;;;;5031435;28;20021;-79
2022/12/22 05:55:12;;;;;;;119.38;114.38;;;8.40;95.80;;;;;;5031234;28;20103;-79
2022/12/22 05:57:38;;;;;;;121.65;116.55;;;8.40;95.80;;;;;;5029932;28;20025;-79
2022/12/22 06:00:09;;;;;;;124.68;119.47;;;8.40;95.80;;;;;;5029874;28;20495;-79
2022/12/22 06:02:35;;;;;;;122.70;117.60;;;8.50;95.80;;;;;;5029904;28;20037;-80
2022/12/22 06:05:01;;;;;;;126.18;120.97;;;8.40;95.80;;;;;;5013451;28;20022;-80
2022/12/22 06:07:26;;;;;;;122.25;117.15;;;8.40;95.80;;;;;;5031026;28;20037;-79
2022/12/22 06:09:52;;;;;;;121.35;116.35;;;8.40;95.90;;;;;;5013256;28;20026;-79
2022/12/22 06:12:18;;;;;;;123.63;118.53;;;8.40;95.80;;;;;;5029804;28;20109;-80
2022/12/22 06:14:43;;;;;;;123.07;117.97;;;8.40;95.80;;;;;;5031041;28;20398;-80
2022/12/22 06:17:09;;;;;;;118.20;113.30;;;8.50;95.80;;;;;;5012934;28;20037;-80
2022/12/22 06:19:35;;;;;;;119.45;114.55;;;8.40;95.70;;;;;;5030713;28;20148;-80
2022/12/22 06:22:00;;;;;;;121.05;116.05;;;8.50;95.70;;;;;;5029560;28;20087;-80
2022/12/22 06:24:26;;;;;;;120.22;115.25;;;8.40;95.70;;;;;;5030749;28;20406;-80
2022/12/22 06:26:52;;;;;;;118.75;113.85;;;8.40;95.70;;;;;;5029716;28;20060;-79
2022/12/22 06:29:17;;;;;;;117.68;112.82;;;8.40;95.70;;;;;;5029505;28;20035;-80
2022/12/22 06:31:43;;;;;;;116.75;111.95;;;8.40;95.70;;;;;;5029468;28;20033;-79
2022/12/22 06:34:10;;;;;;;118.30;113.40;;;8.40;95.70;;;;;;5030517;28;20030;-79
2022/12/22 06:36:37;;;;;;;118.25;113.35;;;8.30;95.70;;;;;;5029084;28;20127;-79
2022/12/22 06:39:04;;;;;;;113.57;108.88;;;8.20;95.80;;;;;;5029226;28;20030;-80
2022/12/22 06:44:14;;;;;;;112.35;107.75;;;8.20;95.80;;;;;;5030643;28;20040;-78
2022/12/22 06:46:40;;;;;;;110.43;105.93;;;8.10;95.90;;;;;;5030224;28;20482;-79
2022/12/22 06:49:05;;;;;;;111.45;106.85;;;8.10;95.90;;;;;;5029117;28;20116;-79
2022/12/22 06:51:31;;;;;;;110.45;105.93;;;8.10;95.90;;;;;;5012735;28;20068;-79
2022/12/22 06:53:57;;;;;;;109.47;104.97;;;8.00;95.90;;;;;;5012522;28;20041;-79
2022/12/22 06:56:22;;;;;;;109.45;104.95;;;8.00;96.00;;;;;;5012209;28;20065;-78
2022/12/22 06:58:48;;;;;;;113.00;108.30;;;7.90;95.90;;;;;;5031189;28;20335;-79
2022/12/22 07:01:14;;;;;;;115.57;110.78;;;7.90;96.00;;;;;;5028730;28;20155;-79
2022/12/22 07:03:39;;;;;;;118.20;113.20;;;7.90;96.00;;;;;;5028811;28;20037;-79
2022/12/22 07:06:06;;;;;;;116.80;111.90;;;7.90;96.00;;;;;;5029987;28;20033;-79
2022/12/22 07:08:31;;;;;;;115.50;110.60;;;7.90;96.00;;;;;;5028460;28;20501;-78
2022/12/22 07:10:57;;;;;;;118.78;113.72;;;7.90;96.00;;;;;;5029552;28;20030;-79
2022/12/22 07:13:26;;;;;;;117.82;112.82;;;7.90;96.00;;;;;;5013083;28;20038;-80
2022/12/22 07:15:52;;;;;;;119.95;114.85;;;7.90;96.00;;;;;;5029970;28;20025;-79
2022/12/22 07:18:18;;;;;;;;;;;7.80;96.00;;;;;;5029327;28;20026;-80
2022/12/22 07:20:43;;;;;;;117.70;112.70;;;7.80;96.00;;;;;;5028399;28;20000;-79
2022/12/22 07:23:09;;;;;;;116.65;111.75;;;7.80;96.00;;;;;;5011812;28;20053;-79
2022/12/22 07:25:35;;;;;;;119.55;114.55;;;7.70;96.00;;;;;;5029559;28;20034;-80
2022/12/22 07:28:01;;;;;;;118.45;113.45;;;7.70;96.10;;;;;;5028384;28;20390;-79
2022/12/22 07:30:27;;;;;;;118.40;113.40;;;7.80;96.10;;;;;;5028372;28;20076;-79
2022/12/22 07:32:52;;;;;;;118.18;113.22;;;7.80;96.10;;;;;;5029610;28;20036;-80
2022/12/22 07:35:18;;;;;;;117.85;112.90;;;7.90;96.00;;;;;;5011264;28;20045;-80
2022/12/22 07:37:46;;;;;;;114.47;109.68;;;7.90;96.00;;;;;;5028199;28;20154;-79
2022/12/22 07:40:11;;;;;;;114.57;109.78;;;8.00;96.00;;;;;;5012090;28;20033;-80
2022/12/22 07:42:43;;;;;;;112.45;107.68;;;8.00;95.90;;;;;;5027966;28;20080;-79
2022/12/22 07:45:12;;;;;;;113.80;109.00;;;8.00;95.90;;;;;;5012150;28;20043;-78
2022/12/22 07:47:38;;;;;;;114.20;109.30;;;8.00;95.90;;;;;;5028012;28;20033;-80
2022/12/22 07:52:49;;;;;;;118.18;113.07;;;8.10;95.80;;;;;;5028202;28;19971;-79
2022/12/22 07:55:15;;;;;;;122.50;117.20;;;8.00;95.80;;;;;;5027255;28;20044;-80
2022/12/22 07:57:40;;;;;;;120.50;115.25;;;7.90;95.80;;;;;;5011121;28;20026;-80
2022/12/22 08:00:07;;;;;;;118.47;113.28;;;7.90;96.00;;;;;;4994487;28;20029;-80
2022/12/22 08:02:33;;;;;;;125.18;119.78;;;7.80;96.00;;;;;;5027558;28;20083;-79
2022/12/22 08:04:58;;;;;;;123.57;118.18;;;7.80;96.00;;;;;;5027377;28;20033;-80
2022/12/22 08:07:24;;;;;;;123.57;118.18;;;7.80;96.10;;;;;;5027502;28;20035;-79
2022/12/22 08:09:50;;;;;;;123.53;118.13;;;7.80;96.10;;;;;;5010872;28;20026;-79
2022/12/22 08:12:15;;;;;;;122.75;117.35;;;7.80;96.10;;;;;;5010872;28;20066;-79
2022/12/22 08:14:44;;;;;;;121.65;116.30;;;7.80;96.10;;;;;;5027459;28;20025;-80
2022/12/22 08:17:11;;;;;;;121.90;116.57;;;7.90;96.10;;;;;;5028465;28;20029;-80
2022/12/22 08:19:37;;;;;;;122.45;117.05;;;7.90;96.10;;;;;;5028534;28;20359;-80
2022/12/22 08:22:03;;;;;;;118.75;113.55;;;7.90;96.10;;;;;;5027298;28;20044;-80
2022/12/22 08:24:29;;;;;;;;;;;7.90;96.00;;;;;;5028587;28;20494;-79
2022/12/22 08:27:00;;;;;;;117.82;112.63;;;7.90;96.10;;;;;;5026967;28;20000;-79
2022/12/22 08:29:33;;;;;;;120.97;115.68;;;7.90;96.00;;;;;;5027011;28;20026;-79
2022/12/22 08:32:00;;;;;;;118.65;113.40;;;7.90;96.00;;;;;;5026889;28;20057;-79
2022/12/22 08:34:26;;;;;;;113.75;108.65;;;7.90;96.10;;;;;;5026874;28;20052;-79
2022/12/22 08:36:55;;;;;;;115.20;110.05;;;7.90;96.00;;;;;;5026545;28;20284;-79
2022/12/22 08:39:22;;;;;;;115.45;110.35;;;7.90;96.10;;;;;;5028251;28;20498;-79
2022/12/22 08:41:48;;;;;;;116.07;110.90;;;7.90;96.10;;;;;;5028058;28;20037;-80
2022/12/22 08:44:15;;;;;;;119.22;113.95;;;7.90;96.10;;;;;;5026831;28;20053;-80
2022/12/22 08:46:41;;;;;;;116.45;111.25;;;7.90;96.00;;;;;;5029720;28;20025;-79
2022/12/22 08:49:06;;;;;;;116.40;111.20;;;8.00;96.00;;;;;;5027338;28;20040;-80
2022/12/22 08:51:33;;;;;;;116.28;111.07;;;8.00;96.00;;;;;;5026448;28;20120;-80
2022/12/22 08:53:58;;;;;;;121.55;116.25;;;8.00;96.00;;;;;;5026529;28;20087;-79
2022/12/22 08:56:24;;;;;;;115.85;110.75;;;7.90;96.00;;;;;;5026192;28;20033;-79
2022/12/22 08:58:50;;;;;;;113.68;108.57;;;7.90;96.00;;;;;;5026149;28;20505;-79
2022/12/22 09:01:21;;;;;;;110.40;105.50;;;7.80;96.00;;;;;;5027774;28;20024;-78
2022/12/22 09:03:51;;;;;;;111.45;106.47;;;7.80;96.10;;;;;;5027627;28;20530;-80
2022/12/22 09:06:18;;;;;;;112.30;107.30;;;7.80;96.10;;;;;;5027677;28;20029;-79
2022/12/22 09:08:44;;;;;;;109.63;104.72;;;7.90;96.10;;;;;;5026013;28;20116;-80
2022/12/22 09:11:09;;;;;;;110.05;105.15;;;7.90;96.10;;;;;;5026228;28;20513;-79
2022/12/22 09:13:35;;;;;;;106.97;102.18;;;7.90;96.10;;;;;;5009945;28;20030;-77
2022/12/22 09:16:08;;;;;;;108.63;103.72;;;7.90;96.10;;;;;;5027375;28;20112;-80
2022/12/22 09:18:34;;;;;;;108.75;103.93;;;8.00;96.10;;;;;;5009889;28;20397;-80
2022/12/22 09:20:59;;;;;;;112.65;107.65;;;8.00;96.10;;;;;;5009120;28;20124;-79
2022/12/22 09:23:26;;;;;;;108.80;103.95;;;8.00;96.10;;;;;;5009418;28;20125;-80
2022/12/22 09:25:51;;;;;;;;;;;8.10;96.10;;;;;;5026352;28;20041;-79
2022/12/22 09:28:17;;;;;;;105.25;100.55;;;8.10;96.00;;;;;;5025923;28;20288;-80
2022/12/22 09:30:52;;;;;;;108.63;103.82;;;8.20;95.90;;;;;;5027232;28;20044;-79
2022/12/22 09:33:17;;;;;;;106.05;101.35;;;8.20;95.90;;;;;;5027234;28;20033;-79
2022/12/22 09:35:43;;;;;;;108.13;103.43;;;8.30;95.90;;;;;;5009454;28;20040;-77
2022/12/22 09:38:09;;;;;;;107.18;102.57;;;8.30;96.00;;;;;;5025599;28;20164;-79
2022/12/22 09:40:35;;;;;;;101.03;96.70;;;8.40;96.00;;;;;;5025896;28;20116;-79
2022/12/22 09:43:03;;;;;;;103.65;99.15;;;8.40;96.30;;;;;;5027195;28;20033;-79
2022/12/22 09:45:32;;;;;;;102.00;97.60;;;8.50;96.10;;;;;;5025705;28;20117;-79
2022/12/22 09:48:00;;;;;;;102.95;98.55;;;8.60;96.10;;;;;;5027105;28;20022;-79
2022/12/22 09:50:26;;;;;;;95.43;91.35;;;8.70;96.10;;;;;;5027264;28;20030;-79
2022/12/22 09:52:59;;;;;;;94.25;90.25;;;8.80;96.10;;;;;;5025850;28;20397;-79
2022/12/22 09:55:25;;;;;;;92.25;88.35;;;8.90;96.10;;;;;;5026629;28;20036;-79
2022/12/22 09:57:53;;;;;;;92.15;88.28;;;9.00;96.10;;;;;;5026974;28;20565;-79
2022/12/22 10:00:21;;;;;;;86.60;83.00;;;9.00;96.10;;;;;;5025832;28;20030;-79
2022/12/22 10:03:12;;;;;;;89.25;85.55;;;9.10;96.20;;;;;;5028525;28;20075;-78
2022/12/22 10:05:41;;;;;;;91.45;87.75;;;9.10;96.30;;;;;;5028806;28;20112;-79
2022/12/22 10:08:18;;;;;;;94.03;90.18;;;9.10;96.30;;;;;;5027890;28;20143;-78
2022/12/22 10:10:44;;;;;;;97.35;93.45;;;9.10;96.30;;;;;;5028792;28;20029;-78
2022/12/22 10:13:27;;;;;;;92.03;88.15;;;9.20;96.20;;;;;;5029089;28;20121;-78
2022/12/22 10:15:54;;;;;;;87.95;84.30;;;9.20;96.10;;;;;;5011211;28;20034;-78
2022/12/22 10:18:26;;;;;;;83.72;80.32;;;9.30;96.10;;;;;;5027628;28;20022;-78
2022/12/22 10:21:03;;;;;;;84.78;81.28;;;9.30;96.20;;;;;;5029503;28;20097;-78
2022/12/22 10:23:30;;;;;;;;;;;9.30;96.20;;;;;;5030196;28;20048;-80
2022/12/22 10:25:56;;;;;;;87.43;83.88;;;9.40;96.30;;;;;;5037257;28;19905;-79
2022/12/22 10:28:26;;;;;;;87.63;84.03;;;9.40;96.20;;;;;;5048761;28;20503;-79
2022/12/22 10:31:14;;;;;;;88.53;84.88;;;9.50;96.20;;;;;;5039640;28;20217;-78
2022/12/22 10:33:41;;;;;;;93.55;89.68;;;9.40;96.10;;;;;;5019777;28;20043;-79
2022/12/22 10:36:08;;;;;;;90.95;87.30;;;9.30;96.20;;;;;;5030904;28;20037;-79
2022/12/22 10:38:38;;;;;;;86.65;83.05;;;9.30;96.20;;;;;;5032036;28;20108;-79
2022/12/22 10:41:16;;;;;;;84.78;81.28;;;9.30;96.20;;;;;;5042603;28;20009;-79
2022/12/22 10:43:51;;;;;;;85.43;81.90;;;9.30;96.30;;;;;;5046599;28;20091;-79
2022/12/22 10:46:19;;;;;;;84.07;80.65;;;9.30;96.40;;;;;;5046801;28;20075;-80
2022/12/22 10:48:44;;;;;;;80.63;77.32;;;9.40;96.40;;;;;;5035139;28;20040;-79
2022/12/22 10:51:13;;;;;;;78.57;75.38;;;9.40;96.40;;;;;;5047399;28;20025;-79
2022/12/22 10:53:46;;;;;;;76.38;73.28;;;9.60;96.60;;;;;;5046491;28;20033;-79
2022/12/22 10:56:30;;;;;;;65.55;62.85;;;9.70;96.60;;;;;;5041049;28;20033;-79
2022/12/22 10:59:02;;;;;;;57.40;55.10;;;9.80;96.80;;;;;;5047234;28;20116;-79
2022/12/22 11:01:34;;;;;;;52.40;50.30;;;10.10;97.00;;;;;;5040649;28;20052;-78
2022/12/22 11:04:22;;;;;;;57.35;55.05;;;10.40;97.10;;;;;;5038163;28;20084;-77
2022/12/22 11:06:48;;;;;;;58.10;55.80;;;10.70;96.90;;;;;;5047511;28;20108;-79
2022/12/22 11:09:14;;;;;;;60.03;57.63;;;10.70;96.60;;;;;;5041087;28;20146;-78
2022/12/22 11:11:52;;;;;;;66.45;63.75;;;10.60;96.40;;;;;;5047664;28;20037;-77
2022/12/22 11:14:55;;;;;;;71.70;68.90;;;10.50;96.30;;;;;;5040633;28;20408;-78
2022/12/22 11:17:58;;;;;;;74.22;71.30;;;10.20;96.10;;;;;;5038474;28;20021;-78
2022/12/22 11:20:35;;;;;;;73.55;70.65;;;9.90;96.20;;;;;;5050888;28;20104;-78
2022/12/22 11:23:14;;;;;;;73.70;70.80;;;9.80;96.30;;;;;;5037824;28;20080;-77
2022/12/22 11:25:55;;;;;;;73.05;70.10;;;9.60;96.30;;;;;;5038233;28;20036;-76
2022/12/22 11:28:50;;;;;;;69.78;66.97;;;9.60;96.50;;;;;;5047045;28;20544;-79
2022/12/22 11:31:50;;;;;;;69.30;66.60;;;9.60;96.50;;;;;;5038558;28;20033;-79
2022/12/22 11:34:30;;;;;;;66.75;64.05;;;9.60;96.50;;;;;;5034683;28;20025;-80
2022/12/22 11:37:43;;;;;;;71.18;68.28;;;9.70;96.50;;;;;;5046222;28;20429;-81
2022/12/22 11:40:37;;;;;;;62.75;60.25;;;9.80;96.60;;;;;;5023587;28;20037;-76
2022/12/22 11:43:17;;;;;;;61.92;59.42;;;10.00;96.70;;;;;;5047427;28;20021;-79
2022/12/22 11:46:06;;;;;;;55.78;53.58;;;10.20;96.60;;;;;;5039704;28;20025;-79
2022/12/22 11:49:05;;;;;;;63.95;61.45;;;10.40;96.50;;;;;;5045860;28;20034;-80
2022/12/22 11:52:01;;;;;;;61.45;58.97;;;10.50;96.30;;;;;;5038009;28;20087;-79
2022/12/22 11:55:16;;;;;;;61.70;59.28;;;10.50;96.10;;;;;;5041755;28;20400;-80
2022/12/22 11:58:08;;;;;;;55.97;53.72;;;10.60;96.10;;;;;;5028225;28;20129;-80
2022/12/22 12:00:49;;;;;;;54.92;52.72;;;10.60;96.20;;;;;;5038545;28;20026;-79
2022/12/22 12:03:51;;;;;;;59.65;57.25;;;10.70;96.10;;;;;;5045424;28;20021;-79
2022/12/22 12:06:30;;;;;;;55.75;53.55;;;10.70;96.10;;;;;;5041006;28;20018;-80
2022/12/22 12:09:36;;;;;;;59.63;57.22;;;10.60;96.00;;;;;;5041640;28;20104;-79
2022/12/22 12:12:22;;;;;;;62.60;60.10;;;10.60;96.00;;;;;;5041076;28;20040;-78
2022/12/22 12:15:11;;;;;;;60.25;57.85;;;10.50;95.90;;;;;;5032835;28;20481;-80
2022/12/22 12:18:02;;;;;;;63.55;61.05;;;10.40;95.90;;;;;;5027277;28;20052;-77
2022/12/22 12:20:41;;;;;;;62.20;59.70;;;10.30;95.90;;;;;;5029051;28;20104;-79
2022/12/22 12:23:31;;;;;;;63.13;60.63;;;10.20;96.00;;;;;;5031593;28;20045;-74
2022/12/22 12:26:18;;;;;;;61.13;58.63;;;10.20;96.10;;;;;;5040086;28;20021;-78
2022/12/22 12:28:59;;;;;;;56.55;54.35;;;10.20;96.10;;;;;;5033084;28;20124;-76
2022/12/22 12:31:30;;;;;;;51.97;49.97;;;10.20;96.00;;;;;;5034256;28;20052;-75
2022/12/22 12:34:00;;;;;;;50.00;48.00;;;10.10;96.00;;;;;;5039904;28;20072;-78
2022/12/22 12:36:55;;;;;;;52.97;50.88;;;10.10;96.00;;;;;;5049242;28;20470;-77
2022/12/22 12:39:39;;;;;;;52.97;50.88;;;10.10;96.10;;;;;;5035764;28;20382;-76
2022/12/22 12:42:27;;;;;;;48.50;46.60;;;10.10;96.00;;;;;;5033174;28;20028;-79
2022/12/22 12:44:53;;;;;;;49.05;47.15;;;10.10;96.00;;;;;;5039023;28;20017;-79
2022/12/22 12:47:25;;;;;;;;;;;10.10;96.10;;;;;;5029245;28;20405;-77
2022/12/22 12:49:53;;;;;;;44.65;42.95;;;10.10;96.10;;;;;;5043449;28;19932;-79
2022/12/22 12:52:38;;;;;;;44.10;42.40;;;10.10;96.00;;;;;;5031495;28;20112;-80
2022/12/22 12:55:28;;;;;;;43.92;42.22;;;10.10;96.10;;;;;;5029174;28;20029;-78
2022/12/22 12:57:56;;;;;;;44.03;42.33;;;10.20;96.10;;;;;;5027580;28;20045;-78
2022/12/22 13:00:33;;;;;;;41.90;40.25;;;10.30;96.10;;;;;;5033501;28;20420;-79
2022/12/22 13:03:10;;;;;;;42.33;40.72;;;10.30;96.10;;;;;;5047763;28;20377;-79
2022/12/22 13:05:52;;;;;;;40.92;39.33;;;10.30;96.10;;;;;;5047708;28;20368;-77
2022/12/22 13:08:31;;;;;;;43.60;41.90;;;10.40;96.10;;;;;;5045943;28;20063;-73
2022/12/22 13:10:56;;;;;;;43.03;41.33;;;10.40;96.10;;;;;;5049014;28;20021;-78
2022/12/22 13:13:22;;;;;;;45.13;43.42;;;10.40;96.00;;;;;;5042920;28;20521;-77
2022/12/22 13:16:06;;;;;;;44.80;43.10;;;10.30;95.90;;;;;;5027410;28;20101;-78
2022/12/22 13:18:41;;;;;;;43.92;42.22;;;10.30;95.90;;;;;;5028850;28;20033;-78
2022/12/22 13:21:25;;;;;;;42.65;41.05;;;10.20;95.90;;;;;;5027625;28;20074;-78
2022/12/22 13:23:53;;;;;;;43.28;41.63;;;10.20;96.00;;;;;;5029375;28;20124;-79
2022/12/22 13:26:26;;;;;;;43.58;41.88;;;10.20;96.00;;;;;;5028610;28;20123;-78
2022/12/22 13:29:01;;;;;;;41.50;39.90;;;10.10;96.00;;;;;;5028479;28;20025;-77
2022/12/22 13:31:27;;;;;;;41.85;40.25;;;10.10;96.00;;;;;;5027669;28;20370;-77
2022/12/22 13:34:06;;;;;;;40.70;39.10;;;10.10;96.10;;;;;;5028500;28;20032;-77
2022/12/22 13:36:32;;;;;;;40.00;38.50;;;10.20;96.10;;;;;;5027341;28;20293;-77
2022/12/22 13:39:04;;;;;;;40.25;38.75;;;10.10;96.10;;;;;;5009947;28;20029;-74
2022/12/22 13:41:31;;;;;;;38.42;36.92;;;10.10;96.10;;;;;;5028493;28;20032;-75
2022/12/22 13:44:03;;;;;;;39.53;38.03;;;10.10;96.00;;;;;;5028702;28;20129;-77
2022/12/22 13:46:32;;;;;;;38.90;37.40;;;10.00;96.00;;;;;;5027366;28;20347;-75
2022/12/22 13:48:59;;;;;;;40.75;39.15;;;10.00;96.00;;;;;;5029018;28;20064;-77
2022/12/22 13:51:34;;;;;;;41.58;39.97;;;10.00;96.10;;;;;;5028425;28;20026;-77
2022/12/22 13:54:07;;;;;;;40.58;39.03;;;10.00;96.00;;;;;;5028676;28;20044;-77
2022/12/22 13:56:38;;;;;;;42.65;41.05;;;9.90;95.90;;;;;;5027185;28;20444;-75
2022/12/22 13:59:15;;;;;;;37.00;35.60;;;9.90;95.90;;;;;;5028274;28;20025;-73
2022/12/22 14:01:56;;;;;;;34.58;33.22;;;9.80;96.10;;;;;;5027048;28;20091;-74
2022/12/22 14:04:21;;;;;;;34.78;33.42;;;9.90;96.40;;;;;;5028182;28;20033;-79
2022/12/22 14:06:47;;;;;;;32.80;31.50;;;10.00;96.50;;;;;;5027586;28;20030;-77
2022/12/22 14:09:18;;;;;;;31.00;29.80;;;10.00;96.70;;;;;;5030669;28;20543;-77
2022/12/22 14:12:00;;;;;;;30.20;29.00;;;10.10;96.50;;;;;;5032503;28;20096;-77
2022/12/22 14:14:29;;;;;;;31.90;30.70;;;10.20;96.50;;;;;;5032307;28;20095;-78
2022/12/22 14:16:59;;;;;;;32.40;31.17;;;10.30;96.50;;;;;;5032455;28;20021;-77
2022/12/22 14:19:27;;;;;;;33.67;32.38;;;10.30;96.40;;;;;;5031866;28;20117;-77
2022/12/22 14:22:08;;;;;;;33.53;32.22;;;10.40;96.40;;;;;;5030648;28;20120;-76
2022/12/22 14:24:53;;;;;;;30.65;29.45;;;10.40;96.50;;;;;;5031581;28;20048;-79
2022/12/22 14:27:43;;;;;;;32.47;31.27;;;10.60;96.50;;;;;;5030578;28;20079;-77
2022/12/22 14:30:17;;;;;;;31.83;30.63;;;10.70;96.50;;;;;;5032453;28;20053;-78
2022/12/22 14:32:47;;;;;;;31.38;30.17;;;10.80;96.40;;;;;;5030632;28;20034;-78
2022/12/22 14:35:18;;;;;;;31.00;29.80;;;10.80;96.20;;;;;;5031458;28;20357;-77
2022/12/22 14:37:44;;;;;;;31.65;30.45;;;10.70;96.00;;;;;;5029975;28;20025;-78
2022/12/22 14:40:27;;;;;;;;;;;10.50;95.90;;;;;;5030750;28;20113;-78
2022/12/22 14:42:53;;;;;;;33.50;32.20;;;10.30;95.80;;;;;;5030685;28;19991;-77
2022/12/22 14:45:19;;;;;;;33.90;32.60;;;10.10;95.70;;;;;;4997367;28;20561;-78
2022/12/22 14:47:45;;;;;;;34.83;33.53;;;10.00;95.80;;;;;;5013259;28;20074;-77
2022/12/22 14:50:20;;;;;;;36.08;34.67;;;9.80;95.80;;;;;;5032244;28;20032;-78
2022/12/22 14:52:49;;;;;;;38.40;36.97;;;9.60;95.80;;;;;;5031568;28;20034;-78
2022/12/22 14:55:26;;;;;;;37.65;36.25;;;9.50;95.90;;;;;;5031575;28;20097;-78
2022/12/22 14:57:57;;;;;;;39.97;38.47;;;9.30;95.90;;;;;;5036212;28;20040;-78
2022/12/22 15:00:23;;;;;;;41.55;39.95;;;9.30;96.00;;;;;;5035533;28;20103;-78
2022/12/22 15:02:54;;;;;;;42.58;40.97;;;9.20;96.00;;;;;;5030792;28;20025;-77
2022/12/22 15:05:36;;;;;;;41.30;39.70;;;9.20;96.00;;;;;;5031409;28;20022;-77
2022/12/22 15:08:04;;;;;;;40.38;38.88;;;9.20;96.10;;;;;;5029802;28;20183;-77
2022/12/22 15:10:40;;;;;;;40.85;39.25;;;9.30;96.10;;;;;;5029788;28;20101;-75
2022/12/22 15:13:13;;;;;;;40.42;38.92;;;9.30;96.10;;;;;;5031284;28;20474;-77
2022/12/22 15:15:39;;;;;;;40.22;38.72;;;9.30;96.20;;;;;;5031243;28;20047;-76
2022/12/22 15:18:04;;;;;;;41.00;39.40;;;9.30;96.10;;;;;;5030537;28;20324;-73
2022/12/22 15:20:30;;;;;;;41.70;40.10;;;9.30;96.00;;;;;;5030514;28;20025;-76
2022/12/22 15:22:56;;;;;;;43.70;42.03;;;9.30;96.00;;;;;;5029273;28;20053;-76
2022/12/22 15:25:23;;;;;;;44.47;42.78;;;9.20;95.90;;;;;;5030651;28;20033;-77
2022/12/22 15:27:50;;;;;;;45.35;43.58;;;9.20;95.90;;;;;;5028386;28;20029;-73
2022/12/22 15:30:19;;;;;;;48.78;46.97;;;9.10;95.90;;;;;;5029121;28;20049;-77
2022/12/22 15:32:46;;;;;;;50.30;48.40;;;9.00;95.80;;;;;;5030896;28;20124;-77
2022/12/22 15:35:38;;;;;;;51.22;49.25;;;8.90;95.80;;;;;;5030998;28;20038;-74
2022/12/22 15:38:16;;;;;;;54.40;52.30;;;8.80;95.80;;;;;;5027022;28;20033;-77
2022/12/22 15:40:42;;;;;;;55.10;53.00;;;8.70;95.80;;;;;;5030851;28;20056;-77
2022/12/22 15:43:09;;;;;;;58.90;56.60;;;8.70;95.80;;;;;;5031038;28;20028;-79
2022/12/22 15:45:35;;;;;;;60.97;58.58;;;8.60;95.80;;;;;;5030909;28;20033;-77
2022/12/22 15:48:02;;;;;;;61.47;59.10;;;8.50;95.80;;;;;;5030601;28;20070;-78
2022/12/22 15:50:33;;;;;;;63.80;61.30;;;8.40;95.80;;;;;;5029378;28;20381;-77
2022/12/22 15:53:00;;;;;;;66.78;64.18;;;8.30;96.00;;;;;;5030574;28;20445;-77
2022/12/22 15:55:25;;;;;;;;;;;8.30;95.90;;;;;;5013526;28;20030;-74
2022/12/22 15:57:55;;;;;;;66.22;63.63;;;8.30;96.10;;;;;;5028249;28;19935;-75
2022/12/22 16:00:21;;;;;;;69.32;66.63;;;8.30;95.90;;;;;;5041468;28;20056;-75
2022/12/22 16:02:46;;;;;;;;;;;8.20;95.90;;;;;;5050224;28;20029;-78
2022/12/22 16:05:13;;;;;;;69.15;66.45;;;8.20;95.80;;;;;;5048193;28;19927;-77
2022/12/22 16:07:41;;;;;;;69.90;67.20;;;8.20;95.80;;;;;;5049886;28;20024;-77
2022/12/22 16:10:20;;;;;;;70.40;67.60;;;8.20;95.80;;;;;;5050372;28;20094;-76
2022/12/22 16:12:52;;;;;;;72.50;69.70;;;8.20;95.90;;;;;;5048693;28;20545;-75
2022/12/22 16:15:19;;;;;;;69.60;66.90;;;8.10;95.80;;;;;;5048658;28;20041;-78
2022/12/22 16:17:44;;;;;;;;;;;8.10;95.80;;;;;;5051695;28;20025;-77
2022/12/22 16:20:10;;;;;;;73.05;70.15;;;8.00;95.80;;;;;;5038552;28;19959;-79
2022/12/22 16:22:36;;;;;;;;;;;7.90;95.70;;;;;;5027906;28;20042;-80
2022/12/22 16:25:06;;;;;;;74.35;71.45;;;7.90;95.80;;;;;;5036563;28;19920;-80
2022/12/22 16:27:34;;;;;;;75.57;72.65;;;7.80;95.70;;;;;;5047775;28;20171;-80